sensor_id;sensor_type;location;lat;lon;timestamp;pressure;altitude;pressure_sealevel;temperature;humidity
84959;BME280;75256;48.062;11.662;2024-03-23T00:56:02;94750.53;;;9.29;70.25
84959;BME280;75256;48.062;11.662;2024-03-23T00:58:29;94749.94;;;9.34;70.30
84959;BME280;75256;48.062;11.662;2024-03-23T01:00:56;94741.91;;;9.39;70.53
84959;BME280;75256;48.062;11.662;2024-03-23T01:03:21;94736.94;;;9.47;70.72
84959;BME280;75256;48.062;11.662;2024-03-23T01:05:47;94744.81;;;9.45;71.79
84959;BME280;75256;48.062;11.662;2024-03-23T01:08:14;94738.56;;;9.26;70.80
84959;BME280;75256;48.062;11.662;2024-03-23T01:10:42;94730.94;;;9.03;70.61
84959;BME280;75256;48.062;11.662;2024-03-23T01:13:08;94723.44;;;8.86;71.62
84959;BME280;75256;48.062;11.662;2024-03-23T01:15:33;94720.69;;;8.76;71.53
84959;BME280;75256;48.062;11.662;2024-03-23T01:17:59;94721.44;;;8.77;71.61
84959;BME280;75256;48.062;11.662;2024-03-23T01:20:24;94705.22;;;8.64;71.88
84959;BME280;75256;48.062;11.662;2024-03-23T01:22:49;94715.25;;;8.76;71.82
84959;BME280;75256;48.062;11.662;2024-03-23T01:25:15;94705.56;;;8.75;71.72
84959;BME280;75256;48.062;11.662;2024-03-23T01:27:45;94715.03;;;8.62;71.77
84959;BME280;75256;48.062;11.662;2024-03-23T01:30:10;94708.91;;;8.79;72.45
84959;BME280;75256;48.062;11.662;2024-03-23T01:32:35;94705.78;;;8.90;70.86
84959;BME280;75256;48.062;11.662;2024-03-23T01:35:01;94708.84;;;9.01;69.54
84959;BME280;75256;48.062;11.662;2024-03-23T01:37:26;94703.91;;;9.18;69.39
84959;BME280;75256;48.062;11.662;2024-03-23T01:39:54;94709.53;;;9.32;68.81
84959;BME280;75256;48.062;11.662;2024-03-23T01:42:22;94705.59;;;9.33;69.14
84959;BME280;75256;48.062;11.662;2024-03-23T01:44:49;94700.91;;;9.34;70.20
84959;BME280;75256;48.062;11.662;2024-03-23T01:47:17;94702.75;;;9.46;68.21
84959;BME280;75256;48.062;11.662;2024-03-23T01:49:43;94690.66;;;9.47;67.43
84959;BME280;75256;48.062;11.662;2024-03-23T01:52:11;94698.19;;;9.43;68.09
84959;BME280;75256;48.062;11.662;2024-03-23T01:54:43;94689.56;;;9.44;67.50
84959;BME280;75256;48.062;11.662;2024-03-23T01:57:11;94683.66;;;9.28;67.82
84959;BME280;75256;48.062;11.662;2024-03-23T01:59:36;94690.63;;;9.38;69.97
84959;BME280;75256;48.062;11.662;2024-03-23T02:02:01;94679.88;;;9.25;68.95
84959;BME280;75256;48.062;11.662;2024-03-23T02:04:29;94670.78;;;9.28;68.10
84959;BME280;75256;48.062;11.662;2024-03-23T02:06:57;94674.25;;;9.20;68.95
84959;BME280;75256;48.062;11.662;2024-03-23T02:09:27;94677.84;;;8.99;68.76
84959;BME280;75256;48.062;11.662;2024-03-23T02:11:52;94673.00;;;8.94;69.71
84959;BME280;75256;48.062;11.662;2024-03-23T02:14:17;94661.63;;;8.86;70.54
84959;BME280;75256;48.062;11.662;2024-03-23T02:16:45;94667.47;;;8.75;70.86
84959;BME280;75256;48.062;11.662;2024-03-23T02:19:12;94663.56;;;8.76;69.88
84959;BME280;75256;48.062;11.662;2024-03-23T02:21:37;94663.84;;;8.69;69.24
84959;BME280;75256;48.062;11.662;2024-03-23T02:24:03;94663.25;;;8.74;69.50
84959;BME280;75256;48.062;11.662;2024-03-23T02:26:30;94652.19;;;8.69;69.84
84959;BME280;75256;48.062;11.662;2024-03-23T02:28:56;94646.63;;;8.72;70.12
84959;BME280;75256;48.062;11.662;2024-03-23T02:31:21;94652.19;;;8.69;69.66
84959;BME280;75256;48.062;11.662;2024-03-23T02:33:46;94650.19;;;8.60;69.85
84959;BME280;75256;48.062;11.662;2024-03-23T02:36:14;94651.38;;;8.50;71.35
84959;BME280;75256;48.062;11.662;2024-03-23T02:38:39;94651.03;;;8.48;70.73
84959;BME280;75256;48.062;11.662;2024-03-23T02:41:05;94643.06;;;8.45;71.14
84959;BME280;75256;48.062;11.662;2024-03-23T02:43:31;94639.88;;;8.46;71.70
84959;BME280;75256;48.062;11.662;2024-03-23T02:45:56;94632.63;;;8.52;70.15
84959;BME280;75256;48.062;11.662;2024-03-23T02:48:22;94622.22;;;8.51;70.55
84959;BME280;75256;48.062;11.662;2024-03-23T02:50:49;94624.75;;;8.45;70.32
84959;BME280;75256;48.062;11.662;2024-03-23T02:53:15;94631.34;;;8.35;71.44
84959;BME280;75256;48.062;11.662;2024-03-23T02:55:41;94628.19;;;8.37;71.97
84959;BME280;75256;48.062;11.662;2024-03-23T02:58:06;94625.59;;;8.33;71.88
84959;BME280;75256;48.062;11.662;2024-03-23T03:00:32;94629.84;;;8.34;71.68
84959;BME280;75256;48.062;11.662;2024-03-23T03:02:59;94628.16;;;8.28;71.46
84959;BME280;75256;48.062;11.662;2024-03-23T03:05:25;94629.81;;;8.25;71.80
84959;BME280;75256;48.062;11.662;2024-03-23T03:07:50;94615.88;;;8.23;72.05
84959;BME280;75256;48.062;11.662;2024-03-23T03:10:15;94624.00;;;8.14;72.76
84959;BME280;75256;48.062;11.662;2024-03-23T03:12:41;94617.91;;;8.10;72.77
84959;BME280;75256;48.062;11.662;2024-03-23T03:15:09;94620.59;;;8.01;72.88
84959;BME280;75256;48.062;11.662;2024-03-23T03:17:34;94612.06;;;7.90;73.70
84959;BME280;75256;48.062;11.662;2024-03-23T03:20:00;94606.84;;;7.74;73.72
84959;BME280;75256;48.062;11.662;2024-03-23T03:22:25;94613.09;;;7.62;74.54
84959;BME280;75256;48.062;11.662;2024-03-23T03:24:52;94600.66;;;7.52;75.57
84959;BME280;75256;48.062;11.662;2024-03-23T03:27:22;94603.06;;;7.50;74.79
84959;BME280;75256;48.062;11.662;2024-03-23T03:29:48;94605.47;;;7.48;75.24
84959;BME280;75256;48.062;11.662;2024-03-23T03:32:13;94591.19;;;7.35;75.41
84959;BME280;75256;48.062;11.662;2024-03-23T03:34:41;94598.88;;;7.36;76.43
84959;BME280;75256;48.062;11.662;2024-03-23T03:37:09;94593.91;;;7.35;76.31
84959;BME280;75256;48.062;11.662;2024-03-23T03:39:34;94585.84;;;7.44;76.71
84959;BME280;75256;48.062;11.662;2024-03-23T03:41:59;94585.38;;;7.45;75.54
84959;BME280;75256;48.062;11.662;2024-03-23T03:44:26;94581.66;;;7.30;75.96
84959;BME280;75256;48.062;11.662;2024-03-23T03:46:52;94586.00;;;7.28;76.85
84959;BME280;75256;48.062;11.662;2024-03-23T03:49:22;94573.63;;;7.27;75.91
84959;BME280;75256;48.062;11.662;2024-03-23T03:51:49;94570.84;;;7.18;77.14
84959;BME280;75256;48.062;11.662;2024-03-23T03:54:20;94571.75;;;7.36;76.22
84959;BME280;75256;48.062;11.662;2024-03-23T03:56:48;94564.59;;;7.30;75.80
84959;BME280;75256;48.062;11.662;2024-03-23T03:59:15;94568.34;;;7.23;75.81
84959;BME280;75256;48.062;11.662;2024-03-23T04:01:40;94560.63;;;7.22;76.06
84959;BME280;75256;48.062;11.662;2024-03-23T04:04:06;94556.38;;;7.21;75.88
84959;BME280;75256;48.062;11.662;2024-03-23T04:06:32;94561.66;;;7.15;76.63
84959;BME280;75256;48.062;11.662;2024-03-23T04:08:58;94546.22;;;7.12;76.30
84959;BME280;75256;48.062;11.662;2024-03-23T04:11:24;94551.78;;;7.09;77.20
84959;BME280;75256;48.062;11.662;2024-03-23T04:13:49;94545.16;;;7.10;76.69
84959;BME280;75256;48.062;11.662;2024-03-23T04:16:27;94544.84;;;7.08;76.55
84959;BME280;75256;48.062;11.662;2024-03-23T04:18:55;94534.94;;;7.14;75.82
84959;BME280;75256;48.062;11.662;2024-03-23T04:21:21;94535.41;;;7.34;74.55
84959;BME280;75256;48.062;11.662;2024-03-23T04:23:47;94542.84;;;7.73;73.75
84959;BME280;75256;48.062;11.662;2024-03-23T04:26:13;94527.72;;;7.94;71.95
84959;BME280;75256;48.062;11.662;2024-03-23T04:28:39;94520.13;;;8.19;70.19
84959;BME280;75256;48.062;11.662;2024-03-23T04:31:04;94515.34;;;8.32;69.88
84959;BME280;75256;48.062;11.662;2024-03-23T04:33:32;94502.91;;;8.22;69.60
84959;BME280;75256;48.062;11.662;2024-03-23T04:36:02;94514.31;;;8.30;68.98
84959;BME280;75256;48.062;11.662;2024-03-23T04:38:28;94502.47;;;8.24;69.62
84959;BME280;75256;48.062;11.662;2024-03-23T04:40:57;94504.03;;;8.03;70.24
84959;BME280;75256;48.062;11.662;2024-03-23T04:43:23;94509.16;;;7.92;70.69
84959;BME280;75256;48.062;11.662;2024-03-23T04:45:50;94491.34;;;7.91;70.66
84959;BME280;75256;48.062;11.662;2024-03-23T04:48:19;94497.38;;;7.95;71.01
84959;BME280;75256;48.062;11.662;2024-03-23T04:50:44;94492.88;;;8.01;70.47
84959;BME280;75256;48.062;11.662;2024-03-23T04:53:10;94494.97;;;7.97;69.91
84959;BME280;75256;48.062;11.662;2024-03-23T04:55:35;94482.88;;;7.89;70.21
84959;BME280;75256;48.062;11.662;2024-03-23T04:58:00;94483.19;;;7.91;70.42
84959;BME280;75256;48.062;11.662;2024-03-23T05:00:26;94466.88;;;7.91;70.35
84959;BME280;75256;48.062;11.662;2024-03-23T05:02:53;94465.72;;;8.01;68.98
84959;BME280;75256;48.062;11.662;2024-03-23T05:05:19;94462.69;;;8.08;68.47
84959;BME280;75256;48.062;11.662;2024-03-23T05:07:46;94456.78;;;8.01;68.75
84959;BME280;75256;48.062;11.662;2024-03-23T05:10:12;94450.59;;;8.00;68.99
84959;BME280;75256;48.062;11.662;2024-03-23T05:12:38;94448.66;;;8.01;68.94
84959;BME280;75256;48.062;11.662;2024-03-23T05:15:07;94443.44;;;7.85;70.30
84959;BME280;75256;48.062;11.662;2024-03-23T05:17:35;94435.16;;;7.88;70.19
84959;BME280;75256;48.062;11.662;2024-03-23T05:20:01;94432.59;;;7.85;69.77
84959;BME280;75256;48.062;11.662;2024-03-23T05:22:26;94434.25;;;7.82;69.93
84959;BME280;75256;48.062;11.662;2024-03-23T05:24:53;94442.53;;;7.79;70.30
84959;BME280;75256;48.062;11.662;2024-03-23T05:27:18;94441.78;;;7.78;70.65
84959;BME280;75256;48.062;11.662;2024-03-23T05:29:43;94434.97;;;7.74;71.65
84959;BME280;75256;48.062;11.662;2024-03-23T05:32:11;94434.38;;;7.79;70.15
84959;BME280;75256;48.062;11.662;2024-03-23T05:34:37;94439.28;;;7.93;69.03
84959;BME280;75256;48.062;11.662;2024-03-23T05:37:05;94443.19;;;7.92;68.83
84959;BME280;75256;48.062;11.662;2024-03-23T05:39:32;94437.28;;;7.84;70.22
84959;BME280;75256;48.062;11.662;2024-03-23T05:41:58;94433.81;;;7.84;70.21
84959;BME280;75256;48.062;11.662;2024-03-23T05:44:23;94440.59;;;7.88;69.75
84959;BME280;75256;48.062;11.662;2024-03-23T05:46:51;94435.06;;;8.01;69.48
84959;BME280;75256;48.062;11.662;2024-03-23T05:49:16;94431.25;;;7.98;69.92
84959;BME280;75256;48.062;11.662;2024-03-23T05:51:45;94431.56;;;7.91;69.48
84959;BME280;75256;48.062;11.662;2024-03-23T05:54:10;94422.06;;;7.96;69.52
84959;BME280;75256;48.062;11.662;2024-03-23T05:56:36;94431.84;;;7.84;69.94
84959;BME280;75256;48.062;11.662;2024-03-23T05:59:01;94425.38;;;7.91;70.31
84959;BME280;75256;48.062;11.662;2024-03-23T06:01:29;94420.25;;;8.02;70.13
84959;BME280;75256;48.062;11.662;2024-03-23T06:03:57;94421.34;;;8.04;69.98
84959;BME280;75256;48.062;11.662;2024-03-23T06:06:23;94418.03;;;8.18;68.58
84959;BME280;75256;48.062;11.662;2024-03-23T06:08:49;94418.78;;;8.19;69.90
84959;BME280;75256;48.062;11.662;2024-03-23T06:11:14;94424.88;;;8.41;68.89
84959;BME280;75256;48.062;11.662;2024-03-23T06:13:39;94412.50;;;8.58;66.19
84959;BME280;75256;48.062;11.662;2024-03-23T06:16:05;94409.66;;;8.61;66.04
84959;BME280;75256;48.062;11.662;2024-03-23T06:18:33;94396.34;;;8.82;64.91
84959;BME280;75256;48.062;11.662;2024-03-23T06:21:02;94410.66;;;9.00;64.02
84959;BME280;75256;48.062;11.662;2024-03-23T06:23:27;94395.69;;;9.05;64.53
84959;BME280;75256;48.062;11.662;2024-03-23T06:25:53;94395.69;;;9.14;63.82
84959;BME280;75256;48.062;11.662;2024-03-23T06:28:18;94387.53;;;9.46;61.78
84959;BME280;75256;48.062;11.662;2024-03-23T06:30:43;94383.09;;;9.58;61.61
84959;BME280;75256;48.062;11.662;2024-03-23T06:33:09;94377.25;;;9.50;62.34
84959;BME280;75256;48.062;11.662;2024-03-23T06:35:34;94371.19;;;9.55;61.55
84959;BME280;75256;48.062;11.662;2024-03-23T06:38:02;94363.56;;;9.59;61.35
84959;BME280;75256;48.062;11.662;2024-03-23T06:40:27;94363.22;;;9.75;61.83
84959;BME280;75256;48.062;11.662;2024-03-23T06:42:52;94355.50;;;9.97;59.92
84959;BME280;75256;48.062;11.662;2024-03-23T06:45:24;94341.44;;;10.23;58.96
84959;BME280;75256;48.062;11.662;2024-03-23T06:47:49;94329.72;;;10.31;59.43
84959;BME280;75256;48.062;11.662;2024-03-23T06:50:15;94327.44;;;10.30;58.84
84959;BME280;75256;48.062;11.662;2024-03-23T06:52:41;94314.63;;;10.21;59.61
84959;BME280;75256;48.062;11.662;2024-03-23T06:55:07;94315.53;;;10.18;59.12
84959;BME280;75256;48.062;11.662;2024-03-23T06:57:35;94308.59;;;10.17;59.23
84959;BME280;75256;48.062;11.662;2024-03-23T07:00:00;94305.63;;;10.30;58.88
84959;BME280;75256;48.062;11.662;2024-03-23T07:02:26;94314.97;;;10.38;58.80
84959;BME280;75256;48.062;11.662;2024-03-23T07:04:55;94318.56;;;10.58;58.41
84959;BME280;75256;48.062;11.662;2024-03-23T07:07:23;94307.19;;;10.74;57.63
84959;BME280;75256;48.062;11.662;2024-03-23T07:09:49;94303.81;;;11.08;57.25
84959;BME280;75256;48.062;11.662;2024-03-23T07:12:14;94294.22;;;11.48;56.18
84959;BME280;75256;48.062;11.662;2024-03-23T07:14:39;94289.19;;;11.75;55.92
84959;BME280;75256;48.062;11.662;2024-03-23T07:17:05;94296.63;;;11.95;55.26
84959;BME280;75256;48.062;11.662;2024-03-23T07:19:30;94291.72;;;12.19;54.46
84959;BME280;75256;48.062;11.662;2024-03-23T07:21:55;94292.25;;;12.43;54.95
84959;BME280;75256;48.062;11.662;2024-03-23T07:24:21;94290.19;;;12.58;54.91
84959;BME280;75256;48.062;11.662;2024-03-23T07:26:49;94287.44;;;12.58;55.03
84959;BME280;75256;48.062;11.662;2024-03-23T07:29:16;94293.59;;;12.53;55.15
84959;BME280;75256;48.062;11.662;2024-03-23T07:31:44;94289.31;;;12.46;55.60
84959;BME280;75256;48.062;11.662;2024-03-23T07:34:09;94303.59;;;12.56;55.69
84959;BME280;75256;48.062;11.662;2024-03-23T07:36:37;94298.19;;;12.62;55.67
84959;BME280;75256;48.062;11.662;2024-03-23T07:39:05;94310.03;;;12.79;55.51
84959;BME280;75256;48.062;11.662;2024-03-23T07:41:30;94319.78;;;13.05;54.62
84959;BME280;75256;48.062;11.662;2024-03-23T07:43:58;94321.00;;;13.04;55.60
84959;BME280;75256;48.062;11.662;2024-03-23T07:46:26;94325.00;;;13.03;55.48
84959;BME280;75256;48.062;11.662;2024-03-23T07:48:52;94338.22;;;13.05;56.08
84959;BME280;75256;48.062;11.662;2024-03-23T07:51:21;94356.59;;;13.55;54.29
84959;BME280;75256;48.062;11.662;2024-03-23T07:53:49;94366.88;;;13.66;54.14
84959;BME280;75256;48.062;11.662;2024-03-23T07:56:16;94386.44;;;13.79;53.85
84959;BME280;75256;48.062;11.662;2024-03-23T07:58:43;94415.44;;;13.60;55.92
84959;BME280;75256;48.062;11.662;2024-03-23T08:01:10;94417.00;;;13.41;58.05
84959;BME280;75256;48.062;11.662;2024-03-23T08:03:40;94431.63;;;13.07;60.04
84959;BME280;75256;48.062;11.662;2024-03-23T08:06:16;94439.16;;;12.17;63.30
84959;BME280;75256;48.062;11.662;2024-03-23T08:08:49;94436.13;;;12.29;62.75
84959;BME280;75256;48.062;11.662;2024-03-23T08:11:30;94496.38;;;11.71;65.82
84959;BME280;75256;48.062;11.662;2024-03-23T08:13:58;94461.84;;;11.15;69.18
84959;BME280;75256;48.062;11.662;2024-03-23T08:16:24;94457.59;;;10.76;71.37
84959;BME280;75256;48.062;11.662;2024-03-23T08:18:51;94464.81;;;11.03;71.29
84959;BME280;75256;48.062;11.662;2024-03-23T08:21:22;94471.53;;;10.31;74.12
84959;BME280;75256;48.062;11.662;2024-03-23T08:23:48;94479.47;;;10.44;75.07
84959;BME280;75256;48.062;11.662;2024-03-23T08:26:15;94486.25;;;9.83;77.50
84959;BME280;75256;48.062;11.662;2024-03-23T08:28:43;94492.28;;;9.87;78.97
84959;BME280;75256;48.062;11.662;2024-03-23T08:31:12;94496.63;;;10.02;79.72
84959;BME280;75256;48.062;11.662;2024-03-23T08:33:40;94487.22;;;9.71;81.87
84959;BME280;75256;48.062;11.662;2024-03-23T08:36:11;94496.63;;;9.52;85.34
84959;BME280;75256;48.062;11.662;2024-03-23T08:38:39;94509.28;;;9.73;84.05
84959;BME280;75256;48.062;11.662;2024-03-23T08:41:09;94504.97;;;9.48;85.19
84959;BME280;75256;48.062;11.662;2024-03-23T08:43:36;94523.69;;;9.64;86.96
84959;BME280;75256;48.062;11.662;2024-03-23T08:46:09;94532.84;;;9.25;88.58
84959;BME280;75256;48.062;11.662;2024-03-23T08:48:39;94545.06;;;9.03;90.23
84959;BME280;75256;48.062;11.662;2024-03-23T08:51:07;94558.97;;;8.77;91.27
84959;BME280;75256;48.062;11.662;2024-03-23T08:53:36;94555.09;;;8.39;89.98
84959;BME280;75256;48.062;11.662;2024-03-23T08:56:02;94571.50;;;7.96;90.47
84959;BME280;75256;48.062;11.662;2024-03-23T08:58:28;94571.09;;;7.76;91.47
84959;BME280;75256;48.062;11.662;2024-03-23T09:00:55;94581.44;;;7.68;91.12
84959;BME280;75256;48.062;11.662;2024-03-23T09:03:22;94601.03;;;7.63;92.16
84959;BME280;75256;48.062;11.662;2024-03-23T09:05:50;94605.19;;;7.77;93.14
84959;BME280;75256;48.062;11.662;2024-03-23T09:08:15;94616.75;;;7.90;91.44
84959;BME280;75256;48.062;11.662;2024-03-23T09:10:43;94620.47;;;7.83;91.65
84959;BME280;75256;48.062;11.662;2024-03-23T09:13:09;94630.28;;;7.59;92.72
84959;BME280;75256;48.062;11.662;2024-03-23T09:15:45;94623.31;;;7.58;92.02
84959;BME280;75256;48.062;11.662;2024-03-23T09:18:10;94612.03;;;7.81;92.88
84959;BME280;75256;48.062;11.662;2024-03-23T09:20:36;94625.66;;;7.69;92.39
84959;BME280;75256;48.062;11.662;2024-03-23T09:23:01;94615.81;;;7.62;92.51
84959;BME280;75256;48.062;11.662;2024-03-23T09:25:26;94611.16;;;7.63;92.37
84959;BME280;75256;48.062;11.662;2024-03-23T09:27:52;94624.91;;;7.68;93.22
84959;BME280;75256;48.062;11.662;2024-03-23T09:30:20;94615.81;;;7.62;92.97
84959;BME280;75256;48.062;11.662;2024-03-23T09:32:45;94628.06;;;7.67;93.94
84959;BME280;75256;48.062;11.662;2024-03-23T09:35:13;94634.94;;;7.80;93.01
84959;BME280;75256;48.062;11.662;2024-03-23T09:37:39;94624.53;;;7.79;92.28
84959;BME280;75256;48.062;11.662;2024-03-23T09:40:11;94630.97;;;7.72;92.42
84959;BME280;75256;48.062;11.662;2024-03-23T09:42:38;94627.13;;;7.61;92.71
84959;BME280;75256;48.062;11.662;2024-03-23T09:45:06;94643.28;;;7.42;91.92
84959;BME280;75256;48.062;11.662;2024-03-23T09:47:36;94651.63;;;7.48;92.15
84959;BME280;75256;48.062;11.662;2024-03-23T09:50:05;94653.44;;;7.51;92.04
84959;BME280;75256;48.062;11.662;2024-03-23T09:52:33;94661.09;;;7.65;92.14
84959;BME280;75256;48.062;11.662;2024-03-23T09:55:01;94667.31;;;7.66;90.99
84959;BME280;75256;48.062;11.662;2024-03-23T09:57:28;94661.97;;;7.40;91.07
84959;BME280;75256;48.062;11.662;2024-03-23T09:59:54;94678.44;;;7.12;91.17
84959;BME280;75256;48.062;11.662;2024-03-23T10:02:21;94690.72;;;6.91;91.26
84959;BME280;75256;48.062;11.662;2024-03-23T10:04:46;94686.53;;;6.65;92.61
84959;BME280;75256;48.062;11.662;2024-03-23T10:07:21;94693.16;;;6.77;92.23
84959;BME280;75256;48.062;11.662;2024-03-23T10:09:49;94690.31;;;6.80;91.45
84959;BME280;75256;48.062;11.662;2024-03-23T10:12:19;94702.75;;;7.15;90.74
84959;BME280;75256;48.062;11.662;2024-03-23T10:14:45;94707.84;;;7.13;89.91
84959;BME280;75256;48.062;11.662;2024-03-23T10:17:21;94707.97;;;7.10;90.74
84959;BME280;75256;48.062;11.662;2024-03-23T10:19:52;94716.97;;;6.94;91.32
84959;BME280;75256;48.062;11.662;2024-03-23T10:24:45;94709.94;;;6.97;91.15
84959;BME280;75256;48.062;11.662;2024-03-23T10:27:20;94690.72;;;7.04;90.82
84959;BME280;75256;48.062;11.662;2024-03-23T10:29:47;94693.44;;;7.04;90.82
84959;BME280;75256;48.062;11.662;2024-03-23T10:32:14;94695.06;;;6.64;90.12
84959;BME280;75256;48.062;11.662;2024-03-23T10:34:40;94700.84;;;6.66;91.78
84959;BME280;75256;48.062;11.662;2024-03-23T10:37:06;94696.25;;;7.00;90.67
84959;BME280;75256;48.062;11.662;2024-03-23T10:39:33;94718.97;;;6.94;90.86
84959;BME280;75256;48.062;11.662;2024-03-23T10:42:03;94715.25;;;7.00;91.15
84959;BME280;75256;48.062;11.662;2024-03-23T10:44:29;94709.72;;;6.91;91.16
84959;BME280;75256;48.062;11.662;2024-03-23T10:47:00;94731.75;;;6.81;91.43
84959;BME280;75256;48.062;11.662;2024-03-23T10:49:30;94736.84;;;6.91;91.42
84959;BME280;75256;48.062;11.662;2024-03-23T10:51:58;94736.41;;;6.93;91.57
84959;BME280;75256;48.062;11.662;2024-03-23T10:54:24;94746.94;;;6.78;91.03
84959;BME280;75256;48.062;11.662;2024-03-23T10:56:55;94766.22;;;6.43;92.48
84959;BME280;75256;48.062;11.662;2024-03-23T10:59:27;94766.31;;;6.39;93.13
84959;BME280;75256;48.062;11.662;2024-03-23T11:01:59;94787.66;;;6.37;93.14
84959;BME280;75256;48.062;11.662;2024-03-23T11:04:35;94768.94;;;6.55;92.24
84959;BME280;75256;48.062;11.662;2024-03-23T11:07:02;94768.81;;;6.59;91.65
84959;BME280;75256;48.062;11.662;2024-03-23T11:09:42;94782.56;;;6.26;93.03
84959;BME280;75256;48.062;11.662;2024-03-23T11:14:50;94797.28;;;6.25;92.54
84959;BME280;75256;48.062;11.662;2024-03-23T11:17:25;94819.97;;;6.32;91.63
84959;BME280;75256;48.062;11.662;2024-03-23T11:22:54;94776.63;;;6.03;92.02
84959;BME280;75256;48.062;11.662;2024-03-23T11:25:24;94781.00;;;6.25;90.69
84959;BME280;75256;48.062;11.662;2024-03-23T11:27:54;94779.94;;;6.36;89.44
84959;BME280;75256;48.062;11.662;2024-03-23T11:30:28;94773.91;;;6.32;90.90
84959;BME280;75256;48.062;11.662;2024-03-23T11:32:55;94768.38;;;6.48;89.96
84959;BME280;75256;48.062;11.662;2024-03-23T11:35:34;94771.22;;;6.57;89.31
84959;BME280;75256;48.062;11.662;2024-03-23T11:40:30;94762.13;;;6.76;89.32
84959;BME280;75256;48.062;11.662;2024-03-23T11:43:01;94767.97;;;6.62;88.67
84959;BME280;75256;48.062;11.662;2024-03-23T11:45:27;94743.66;;;6.46;89.24
84959;BME280;75256;48.062;11.662;2024-03-23T11:48:09;94756.38;;;6.61;86.74
84959;BME280;75256;48.062;11.662;2024-03-23T11:50:38;94756.47;;;6.45;86.28
84959;BME280;75256;48.062;11.662;2024-03-23T11:53:20;94758.41;;;6.45;85.89
84959;BME280;75256;48.062;11.662;2024-03-23T11:55:56;94756.22;;;6.40;86.83
84959;BME280;75256;48.062;11.662;2024-03-23T11:58:23;94747.91;;;6.47;86.01
84959;BME280;75256;48.062;11.662;2024-03-23T12:03:19;94762.88;;;6.64;84.55
84959;BME280;75256;48.062;11.662;2024-03-23T12:05:52;94767.41;;;6.54;83.63
84959;BME280;75256;48.062;11.662;2024-03-23T12:08:22;94772.22;;;6.75;84.53
84959;BME280;75256;48.062;11.662;2024-03-23T12:10:50;94769.63;;;6.84;83.54
84959;BME280;75256;48.062;11.662;2024-03-23T12:13:22;94766.47;;;6.86;83.94
84959;BME280;75256;48.062;11.662;2024-03-23T12:15:50;94769.72;;;6.81;84.26
84959;BME280;75256;48.062;11.662;2024-03-23T12:18:17;94760.38;;;6.69;85.06
84959;BME280;75256;48.062;11.662;2024-03-23T12:20:42;94744.53;;;6.68;84.30
84959;BME280;75256;48.062;11.662;2024-03-23T12:23:12;94722.66;;;6.75;83.74
84959;BME280;75256;48.062;11.662;2024-03-23T12:25:40;94731.63;;;6.84;84.61
84959;BME280;75256;48.062;11.662;2024-03-23T12:28:08;94756.06;;;6.84;83.05
84959;BME280;75256;48.062;11.662;2024-03-23T12:30:35;94746.94;;;6.91;81.85
84959;BME280;75256;48.062;11.662;2024-03-23T12:33:02;94738.13;;;6.99;81.99
84959;BME280;75256;48.062;11.662;2024-03-23T12:35:30;94729.66;;;6.97;84.20
84959;BME280;75256;48.062;11.662;2024-03-23T12:37:58;94726.31;;;6.93;81.44
84959;BME280;75256;48.062;11.662;2024-03-23T12:40:26;94720.56;;;7.04;81.49
84959;BME280;75256;48.062;11.662;2024-03-23T12:42:53;94738.47;;;7.01;81.40
84959;BME280;75256;48.062;11.662;2024-03-23T12:45:18;94729.66;;;6.97;81.55
84959;BME280;75256;48.062;11.662;2024-03-23T12:47:44;94746.16;;;7.15;82.54
84959;BME280;75256;48.062;11.662;2024-03-23T12:50:09;94742.22;;;7.41;80.99
84959;BME280;75256;48.062;11.662;2024-03-23T12:52:36;94756.50;;;7.54;81.11
84959;BME280;75256;48.062;11.662;2024-03-23T12:55:01;94745.13;;;7.47;78.67
84959;BME280;75256;48.062;11.662;2024-03-23T12:57:28;94745.94;;;7.69;80.13
84959;BME280;75256;48.062;11.662;2024-03-23T12:59:54;94752.56;;;7.68;77.95
84959;BME280;75256;48.062;11.662;2024-03-23T13:02:20;94763.47;;;7.90;76.91
84959;BME280;75256;48.062;11.662;2024-03-23T13:04:46;94761.88;;;7.80;74.80
84959;BME280;75256;48.062;11.662;2024-03-23T13:07:12;94745.84;;;7.94;75.55
84959;BME280;75256;48.062;11.662;2024-03-23T13:09:40;94748.38;;;7.89;74.79
84959;BME280;75256;48.062;11.662;2024-03-23T13:12:06;94745.44;;;7.83;76.18
84959;BME280;75256;48.062;11.662;2024-03-23T13:14:34;94746.09;;;7.87;74.21
84959;BME280;75256;48.062;11.662;2024-03-23T13:16:59;94747.31;;;7.86;73.73
84959;BME280;75256;48.062;11.662;2024-03-23T13:19:25;94746.19;;;7.62;73.99
84959;BME280;75256;48.062;11.662;2024-03-23T13:21:55;94749.34;;;7.61;74.43
84959;BME280;75256;48.062;11.662;2024-03-23T13:24:24;94741.44;;;7.41;71.79
84959;BME280;75256;48.062;11.662;2024-03-23T13:26:50;94739.25;;;7.48;71.59
84959;BME280;75256;48.062;11.662;2024-03-23T13:29:16;94745.94;;;7.69;69.54
84959;BME280;75256;48.062;11.662;2024-03-23T13:31:46;94721.75;;;7.62;70.46
84959;BME280;75256;48.062;11.662;2024-03-23T13:34:14;94720.13;;;7.52;70.19
84959;BME280;75256;48.062;11.662;2024-03-23T13:36:43;94714.59;;;7.55;71.82
84959;BME280;75256;48.062;11.662;2024-03-23T13:39:09;94712.38;;;7.63;73.67
84959;BME280;75256;48.062;11.662;2024-03-23T13:41:41;94714.75;;;7.74;71.47
84959;BME280;75256;48.062;11.662;2024-03-23T13:44:07;94715.69;;;7.80;69.26
84959;BME280;75256;48.062;11.662;2024-03-23T13:46:33;94724.84;;;7.73;72.66
84959;BME280;75256;48.062;11.662;2024-03-23T13:48:59;94722.56;;;7.72;70.96
84959;BME280;75256;48.062;11.662;2024-03-23T13:51:25;94724.22;;;7.69;70.57
84959;BME280;75256;48.062;11.662;2024-03-23T13:53:53;94721.84;;;7.58;72.18
84959;BME280;75256;48.062;11.662;2024-03-23T13:56:18;94734.03;;;7.54;73.33
84959;BME280;75256;48.062;11.662;2024-03-23T13:58:43;94745.25;;;7.43;72.48
84959;BME280;75256;48.062;11.662;2024-03-23T14:01:15;94738.09;;;7.37;72.47
84959;BME280;75256;48.062;11.662;2024-03-23T14:03:45;94729.63;;;7.35;75.17
84959;BME280;75256;48.062;11.662;2024-03-23T14:06:13;94714.56;;;7.34;72.25
84959;BME280;75256;48.062;11.662;2024-03-23T14:08:39;94716.84;;;7.23;72.97